Latest Weather Observations for St Lawrence

IDQ60801

Issued at 2:32 pm EST Tuesday 3 May 2016 (issued every 30 minutes, with the page automatically refreshed every 10 minutes)

About weather observations | Map of weather stations | Latest weather observations for QLD | Other Formats
Station Details ID: 033210 Name: ST LAWRENCE Lat: -22.35 Lon: 149.52 Height: 9.19 m
Data from the previous 72 hours. | See also: Recent months at St Lawrence
Date/Time
EST
Temp
°C
App
Temp
°C
Dew
Point
Rel
Hum
%
Delta-T
°C
Wind Press
QNH
hPa
Press
MSL
hPa
Rain
since 9 am
mm
Dir
 
Spd
km/h
Gust
km/h
Spd
kts
Gust
kts
03/02:30pm 29.2 29.2 19.8 57 6.2 NNE 19 26 10 14 1011.2 1011.2 0.0
03/02:00pm 29.6 30.2 21.0 60 5.7 NNE 19 26 10 14 1011.5 1011.5 0.0
03/01:30pm 30.3 31.2 20.0 54 6.8 NE 15 24 8 13 1011.9 1011.9 0.0
03/01:00pm 30.1 31.0 20.9 57 6.1 NNE 17 22 9 12 1012.1 1012.1 0.0
03/12:30pm 30.5 33.0 21.0 57 6.3 NNE 9 15 5 8 1012.5 1012.5 0.0
03/12:00pm 30.7 33.1 19.7 52 7.2 N 6 13 3 7 1012.9 1012.9 0.0
03/11:30am 29.9 33.0 19.6 54 6.7 N 2 7 1 4 1013.5 1013.5 0.0
03/11:00am 29.4 32.0 20.0 57 6.2 NNW 6 13 3 7 1014.4 1014.4 0.0
03/10:30am 28.5 31.5 20.0 60 5.6 N 4 9 2 5 1014.8 1014.8 0.0
03/10:00am 27.6 30.8 20.4 65 4.7 NE 4 7 2 4 1015.2 1015.2 0.0
03/09:30am 26.6 29.4 20.4 69 4.1 N 6 9 3 5 1015.3 1015.3 0.0
03/09:00am 26.0 30.2 21.0 74 3.3 CALM 0 6 0 3 1015.7 1015.7 0.0
03/08:30am 24.8 28.3 21.1 80 2.4 W 4 7 2 4 1015.4 1015.4 0.0
03/08:00am 22.9 25.5 20.4 86 1.6 W 7 11 4 6 1015.3 1015.3 0.0
03/07:30am 21.9 25.8 21.1 95 0.5 W 2 6 1 3 1015.3 1015.3 0.0
03/07:00am 21.3 25.3 20.6 96 0.5 CALM 0 0 0 0 1015.3 1015.3 0.0
03/06:30am 21.4 24.6 20.6 95 0.5 SW 4 7 2 4 1014.8 1014.8 0.0
03/06:00am 20.8 23.4 20.0 95 0.5 SW 6 7 3 4 1014.3 1014.3 0.0
03/05:30am 20.7 24.3 19.7 94 0.6 CALM 0 0 0 0 1014.0 1014.0 0.0
03/05:00am 21.2 25.0 20.2 94 0.6 CALM 0 0 0 0 1013.6 1013.6 0.0
03/04:30am 21.4 24.9 20.4 94 0.6 SSE 2 7 1 4 1013.5 1013.5 0.0
03/04:00am 21.6 24.0 20.9 96 0.5 SSE 9 13 5 7 1013.7 1013.7 0.0
03/03:30am 21.3 24.0 20.6 96 0.5 S 7 11 4 6 1013.7 1013.7 0.0
03/03:00am 20.5 23.7 19.8 96 0.4 W 2 7 1 4 1013.5 1013.5 0.0
03/02:30am 20.6 23.1 19.8 95 0.5 WSW 6 9 3 5 1013.8 1013.8 0.0
03/02:00am 21.0 24.8 20.2 95 0.5 CALM 0 0 0 0 1013.9 1013.9 0.0
03/01:30am 20.9 24.6 19.9 94 0.6 CALM 0 0 0 0 1014.2 1014.2 0.0
03/01:00am 20.6 22.9 19.4 93 0.8 WSW 6 7 3 4 1014.5 1014.5 0.0
03/12:30am 21.1 24.3 19.7 92 0.9 WSW 2 9 1 5 1014.7 1014.7 0.0
03/12:00am 22.1 26.1 20.6 91 1.0 CALM 0 0 0 0 1014.9 1014.9 0.0
 
Date/Time
EST
Temp
°C
App
Temp
°C
Dew
Point
Rel
Hum
%
Delta-T
°C
Wind Press
QNH
hPa
Press
MSL
hPa
Rain
since 9 am
mm
Dir
 
Spd
km/h
Gust
km/h
Spd
kts
Gust
kts
02/11:30pm 22.6 26.9 21.1 91 1.0 CALM 0 0 0 0 1015.3 1015.3 0.0
02/11:00pm 23.0 27.5 21.6 92 0.9 CALM 0 4 0 2 1015.4 1015.4 0.0
02/10:30pm 23.0 27.5 21.5 91 1.0 CALM 0 0 0 0 1015.1 1015.1 0.0
02/10:00pm 23.1 27.5 21.4 90 1.1 CALM 0 0 0 0 1015.1 1015.1 0.0
02/09:30pm 23.6 26.9 21.5 88 1.4 NW 6 6 3 3 1015.2 1015.2 0.0
02/09:00pm 24.7 27.8 22.8 89 1.3 NNE 11 15 6 8 1015.0 1015.0 0.0
02/08:30pm 24.8 28.6 22.7 88 1.4 NNE 7 11 4 6 1015.2 1015.2 0.0
02/08:00pm 24.9 28.5 22.4 86 1.7 NNE 7 9 4 5 1015.2 1015.2 0.0
02/07:30pm 25.2 28.5 22.5 85 1.8 NNE 9 13 5 7 1014.9 1014.9 0.0
02/07:00pm 25.3 28.2 21.8 81 2.3 NNE 9 11 5 6 1014.3 1014.3 0.0
02/06:30pm 25.5 28.1 21.2 77 2.8 NNE 9 13 5 7 1013.8 1013.8 0.0
02/06:00pm 25.9 28.2 21.3 76 3.0 NNE 11 17 6 9 1013.6 1013.6 0.0
02/05:30pm 26.8 28.3 20.6 69 4.1 NNE 13 17 7 9 1013.4 1013.4 0.0
02/05:00pm 27.6 28.9 20.2 64 4.8 NNE 13 17 7 9 1013.0 1013.0 0.0
02/04:30pm 28.4 29.4 20.2 61 5.4 NE 15 20 8 11 1012.8 1012.8 0.0
02/04:00pm 29.1 30.0 20.0 58 6.0 NNE 15 20 8 11 1012.6 1012.6 0.0
02/03:30pm 29.2 30.0 19.8 57 6.2 NNE 15 22 8 12 1012.4 1012.4 0.0
02/03:00pm 30.1 30.4 18.8 50 7.3 NE 15 20 8 11 1012.5 1012.5 0.0
02/02:30pm 30.4 30.3 17.8 46 8.0 NNE 15 20 8 11 1012.5 1012.5 0.0
02/02:00pm 30.7 30.9 17.7 45 8.3 NE 13 20 7 11 1012.8 1012.8 0.0
02/01:30pm 31.5 31.4 18.8 46 8.3 NNE 17 20 9 11 1013.2 1013.2 0.0
02/01:00pm 31.4 32.9 19.7 49 7.7 NNE 11 20 6 11 1013.6 1013.6 0.0
02/12:30pm 31.1 33.9 20.4 53 7.1 NE 6 11 3 6 1014.2 1014.2 0.0
02/12:00pm 31.2 34.3 21.1 55 6.8 ENE 6 17 3 9 1014.6 1014.6 0.0
02/11:30am 30.5 33.4 19.8 52 7.0 E 4 9 2 5 1015.1 1015.1 0.0
02/11:00am 29.9 33.1 21.3 60 5.8 NNW 6 13 3 7 1015.6 1015.6 0.0
02/10:30am 28.5 32.5 21.3 65 4.8 SSW 2 7 1 4 1016.0 1016.0 0.0
02/10:00am 27.7 32.3 22.4 73 3.6 ESE 2 7 1 4 1016.5 1016.5 0.0
02/09:30am 26.0 29.7 22.5 81 2.4 S 7 11 4 6 1016.8 1016.8 0.0
02/09:00am 24.7 28.0 22.6 88 1.4 S 9 13 5 7 1016.9 1016.9 0.0
02/08:30am 24.6 27.9 22.5 88 1.4 S 9 13 5 7 1016.6 1016.6 0.0
02/08:00am 23.6 27.4 22.4 93 0.8 S 6 9 3 5 1016.4 1016.4 0.0
02/07:30am 22.7 26.3 22.0 96 0.5 S 6 9 3 5 1016.1 1016.1 0.0
02/07:00am 22.4 26.9 21.6 95 0.5 CALM 0 0 0 0 1015.9 1015.9 0.0
02/06:30am 21.8 26.0 21.0 95 0.5 CALM 0 0 0 0 1015.4 1015.4 0.0
02/06:00am 21.9 25.8 21.1 95 0.5 WSW 2 6 1 3 1015.2 1015.2 0.0
02/05:30am 21.8 25.2 21.0 95 0.5 SSW 4 7 2 4 1014.9 1014.9 0.0
02/05:00am 21.7 25.8 20.7 94 0.6 CALM 0 0 0 0 1014.5 1014.5 0.0
02/04:30am 21.7 25.8 20.7 94 0.6 CALM 0 0 0 0 1014.5 1014.5 0.0
02/04:00am 21.9 26.0 20.7 93 0.8 CALM 0 0 0 0 1014.3 1014.3 0.0
02/03:30am 22.5 25.8 21.5 94 0.7 SSW 6 7 3 4 1014.2 1014.2 0.0
02/03:00am 22.4 26.7 21.2 93 0.8 CALM 0 0 0 0 1014.2 1014.2 0.0
02/02:30am 22.4 26.7 21.2 93 0.8 CALM 0 0 0 0 1014.3 1014.3 0.0
02/02:00am 22.8 27.3 21.6 93 0.8 CALM 0 0 0 0 1014.5 1014.5 0.0
02/01:30am 23.0 27.6 21.8 93 0.8 CALM 0 4 0 2 1014.8 1014.8 0.0
02/01:00am 23.1 27.8 21.9 93 0.8 CALM 0 0 0 0 1015.2 1015.2 0.0
02/12:30am 23.2 27.9 22.0 93 0.8 CALM 0 6 0 3 1015.6 1015.6 0.0
02/12:00am 23.4 27.3 21.8 91 1.1 SSW 4 7 2 4 1015.9 1015.9 0.0
 
Date/Time
EST
Temp
°C
App
Temp
°C
Dew
Point
Rel
Hum
%
Delta-T
°C
Wind Press
QNH
hPa
Press
MSL
hPa
Rain
since 9 am
mm
Dir
 
Spd
km/h
Gust
km/h
Spd
kts
Gust
kts
01/11:30pm 23.7 28.4 22.0 90 1.1 CALM 0 0 0 0 1016.2 1016.2 0.0
01/11:00pm 24.2 29.2 22.5 90 1.1 CALM 0 0 0 0 1016.4 1016.4 0.0
01/10:30pm 23.9 28.2 22.0 89 1.3 WSW 2 7 1 4 1016.6 1016.6 0.0
01/10:00pm 24.3 29.2 22.4 89 1.3 CALM 0 0 0 0 1016.7 1016.7 0.0
01/09:30pm 24.6 29.1 22.3 87 1.5 WSW 2 6 1 3 1016.8 1016.8 0.0
01/09:00pm 25.2 29.4 23.1 88 1.4 ENE 6 11 3 6 1016.8 1016.8 0.0
01/08:30pm 25.3 28.5 23.0 87 1.6 NNE 11 15 6 8 1016.8 1016.8 0.0
01/08:00pm 25.1 28.3 22.4 85 1.8 NNE 9 13 5 7 1016.5 1016.5 0.0
01/07:30pm 25.4 27.9 22.5 84 2.0 NNE 13 15 7 8 1016.4 1016.4 0.0
01/07:00pm 25.5 28.0 22.4 83 2.1 NNE 13 19 7 10 1016.0 1016.0 0.0
01/06:30pm 25.7 28.4 22.8 84 2.0 NNE 13 17 7 9 1015.5 1015.5 0.0
01/06:00pm 26.0 28.5 22.5 81 2.4 NNE 13 19 7 10 1015.0 1015.0 0.0
01/05:30pm 26.4 28.8 22.3 78 2.8 NE 13 20 7 11 1014.8 1014.8 0.0
01/05:00pm 26.8 28.8 22.2 76 3.1 NNE 15 20 8 11 1014.8 1014.8 0.0
01/04:30pm 27.4 29.1 21.7 71 3.8 NE 15 20 8 11 1014.5 1014.5 0.0
01/04:00pm 28.0 29.0 21.1 66 4.6 NNE 17 22 9 12 1014.3 1014.3 0.0
01/03:30pm 28.7 29.4 21.2 64 5.0 NE 19 22 10 12 1013.9 1013.9 0.0
01/03:00pm 28.9 30.2 20.9 62 5.3 NE 15 20 8 11 1013.9 1013.9 0.0
01/02:30pm 29.1 30.0 20.8 61 5.5 NNE 17 24 9 13 1013.8 1013.8 0.0
01/02:00pm 29.7 31.0 20.8 58 5.9 NE 15 22 8 12 1014.0 1014.0 0.0
01/01:30pm 30.1 31.6 21.2 59 6.0 NE 15 20 8 11 1014.3 1014.3 0.0
01/01:00pm 30.1 31.9 21.2 59 6.0 NE 13 22 7 12 1014.8 1014.8 0.0
01/12:30pm 29.2 31.0 21.2 62 5.3 NE 13 20 7 11 1015.2 1015.2 0.0
01/12:00pm 29.9 32.3 21.6 61 5.6 NE 11 19 6 10 1015.7 1015.7 0.0
01/11:30am 29.1 31.3 20.5 59 5.7 NNE 9 17 5 9 1016.3 1016.3 0.0
01/11:00am 28.4 31.5 21.4 66 4.7 SE 7 17 4 9 1016.9 1016.9 0.0
01/10:30am 27.1 30.5 20.9 69 4.1 SE 4 9 2 5 1017.4 1017.4 0.0
01/10:00am 27.6 31.2 21.2 68 4.2 ENE 4 7 2 4 1017.9 1017.9 0.0
01/09:30am 26.0 29.3 21.4 76 3.1 NE 6 9 3 5 1018.0 1017.9 0.0
01/09:00am 25.8 29.1 21.5 77 2.9 SSE 6 9 3 5 1018.0 1017.9 0.0
01/08:30am 24.8 29.0 21.7 83 2.1 S 2 6 1 3 1018.2 1018.1 0.0
01/08:00am 23.9 28.0 21.6 87 1.5 SSW 2 7 1 4 1017.9 1017.8 0.0
01/07:30am 22.7 26.1 21.7 94 0.7 SE 6 9 3 5 1017.8 1017.7 0.0
01/07:00am 22.0 24.6 21.2 95 0.5 SSE 9 11 5 6 1017.6 1017.5 0.0
01/06:30am 21.7 24.7 20.9 95 0.5 SSE 6 9 3 5 1017.4 1017.3 0.0
01/06:00am 21.0 24.4 20.2 95 0.5 SSE 2 7 1 4 1017.2 1017.1 0.0
01/05:30am 21.0 24.4 20.2 95 0.5 SSW 2 6 1 3 1017.0 1016.9 0.0
01/05:00am 21.0 24.4 20.2 95 0.5 SSW 2 7 1 4 1016.8 1016.7 0.0
01/04:30am 20.5 24.0 19.5 94 0.6 CALM 0 0 0 0 1016.6 1016.5 0.0
01/04:00am 20.2 23.5 19.0 93 0.8 CALM 0 0 0 0 1016.4 1016.3 0.0
01/03:30am 21.2 25.0 20.2 94 0.6 CALM 0 0 0 0 1016.5 1016.4 0.0
01/03:00am 20.6 23.9 19.1 91 0.9 CALM 0 0 0 0 1016.5 1016.4 0.0
01/02:30am 21.2 24.8 19.7 91 1.0 CALM 0 0 0 0 1016.7 1016.6 0.0
01/02:00am 21.9 25.8 20.4 91 1.0 CALM 0 0 0 0 1017.0 1016.9 0.0
01/01:30am 22.2 26.2 20.5 90 1.1 CALM 0 0 0 0 1017.1 1017.0 0.0
01/01:00am 22.2 26.3 20.8 92 0.9 CALM 0 0 0 0 1017.3 1017.2 0.0
01/12:30am 21.8 25.7 20.3 91 1.0 CALM 0 0 0 0 1017.4 1017.3 0.0
01/12:00am 21.8 25.4 19.7 88 1.3 CALM 0 0 0 0 1017.4 1017.3 0.0
 
Date/Time
EST
Temp
°C
App
Temp
°C
Dew
Point
Rel
Hum
%
Delta-T
°C
Wind Press
QNH
hPa
Press
MSL
hPa
Rain
since 9 am
mm
Dir
 
Spd
km/h
Gust
km/h
Spd
kts
Gust
kts
30/11:30pm 22.3 26.1 20.2 88 1.4 CALM 0 0 0 0 1017.5 1017.4 0.0
30/11:00pm 22.5 26.2 19.9 85 1.7 CALM 0 0 0 0 1017.7 1017.6 0.0
30/10:30pm 23.2 27.1 20.3 84 1.9 CALM 0 0 0 0 1017.8 1017.7 0.0
30/10:00pm 24.2 28.5 21.1 83 2.0 CALM 0 0 0 0 1017.9 1017.8 0.0
30/09:30pm 24.7 29.0 21.2 81 2.3 CALM 0 0 0 0 1017.8 1017.7 0.0
30/09:00pm 25.3 28.9 22.0 82 2.2 NE 6 9 3 5 1017.8 1017.7 0.0
30/08:30pm 25.6 29.1 22.1 81 2.3 NE 7 13 4 7 1017.7 1017.6 0.0
30/08:00pm 25.7 28.4 22.2 81 2.3 NE 11 15 6 8 1017.4 1017.3 0.0
30/07:30pm 25.9 28.5 22.0 79 2.6 NNE 11 15 6 8 1017.1 1017.0 0.0
30/07:00pm 26.0 28.6 21.9 78 2.7 N 11 17 6 9 1016.7 1016.6 0.0
30/06:30pm 25.8 28.0 21.9 79 2.6 N 13 20 7 11 1016.1 1016.0 0.0
30/06:00pm 26.0 28.1 21.7 77 2.9 N 13 19 7 10 1015.9 1015.8 0.0
30/05:30pm 26.4 28.4 21.6 75 3.2 N 13 19 7 10 1016.0 1015.9 0.0
30/05:00pm 26.8 28.1 21.6 73 3.5 NNE 17 22 9 12 1015.7 1015.6 0.0
30/04:30pm 27.9 28.9 21.7 69 4.2 NNE 19 24 10 13 1015.4 1015.3 0.0
30/04:00pm 28.2 28.8 21.0 65 4.8 NNE 19 26 10 14 1015.2 1015.1 0.0
30/03:30pm 29.2 30.8 21.4 63 5.2 NNE 15 22 8 12 1015.1 1015.0 0.0
30/03:00pm 29.9 31.4 21.3 60 5.8 NNE 15 22 8 12 1014.9 1014.8 0.0

Other Formats:

Comma delimited format used in spreadsheet applications
http://www.bom.gov.au/fwo/IDQ60801/IDQ60801.95369.axf

JavaScript Object Notation format (JSON) in row-major order
http://www.bom.gov.au/fwo/IDQ60801/IDQ60801.95369.json